Atlantic Heron — CZAQ — position and weather

sailwx.info

Track history (hours):
 
Tides and Currents Weather Stations Pressure Air Temp Water Temp Dewpoint Dewpoint Depression Visibility Wind Speed Wind Dir Waves Ship Positions

Atlantic Heron

Last reported at 2018-Jun-20 20:19 UTC. Time now 2018-Jun-23 21:54 UTC.
Position N 47°26' W 052°05'.

Length 86 m; draft 6.1 m.

Type: Other ship. MMSI: 316001340.

Date/timePositionNaut miles runAvg speedWind from/ knotsBaromVisibWave heightAir tempDewpointWater temp
2018-Jun-20 20:19N 47°26' W 052°05'513.4
2018-Jun-20 19:56N 47°27' W 052°12'613.4
2018-Jun-20 19:30N 47°29' W 052°20'713.2
2018-Jun-20 19:00N 47°32' W 052°29'612.6
2018-Jun-20 18:29N 47°34' W 052°38'2 4.3
2018-Jun-20 17:57N 47°34' W 052°42'0 0.0
2018-Jun-20 17:27N 47°34' W 052°42'0 0.0
2018-Jun-20 16:56N 47°34' W 052°42'0 0.0
2018-Jun-20 16:26N 47°34' W 052°42'0 0.0
2018-Jun-20 15:53N 47°34' W 052°42'0 0.0
2018-Jun-20 15:26N 47°34' W 052°42'0 0.0
2018-Jun-20 14:59N 47°34' W 052°42'0 0.0
2018-Jun-20 14:29N 47°34' W 052°42'0 0.0
2018-Jun-20 13:56N 47°34' W 052°42'0 0.0
2018-Jun-20 13:26N 47°34' W 052°42'0 0.0
2018-Jun-20 12:56N 47°34' W 052°42'0 0.0
2018-Jun-20 12:23N 47°34' W 052°42'0 0.0
2018-Jun-20 11:59N 47°34' W 052°42'0 0.0
2018-Jun-20 11:29N 47°34' W 052°42'0 0.6
2018-Jun-20 10:56N 47°34' W 052°42'0 0.0
2018-Jun-20 10:29N 47°34' W 052°42'0 0.0
2018-Jun-20 09:56N 47°34' W 052°42'0 0.0
2018-Jun-20 09:26N 47°34' W 052°42'0 0.0
2018-Jun-20 08:56N 47°34' W 052°42'0 0.0
2018-Jun-20 08:26N 47°34' W 052°42'0 0.0
2018-Jun-20 07:56N 47°34' W 052°42'0 0.0
2018-Jun-20 07:26N 47°34' W 052°42'0 0.0
2018-Jun-20 06:56N 47°34' W 052°42'0 0.0
2018-Jun-20 06:26N 47°34' W 052°42'0 0.0
2018-Jun-20 05:50N 47°34' W 052°42'0 0.0
2018-Jun-20 05:26N 47°34' W 052°42'0 0.0
2018-Jun-20 04:50N 47°34' W 052°42'0 0.0
2018-Jun-20 04:20N 47°34' W 052°42'0 0.0
2018-Jun-20 03:56N 47°34' W 052°42'0 0.0
2018-Jun-20 03:26N 47°34' W 052°42'0 0.0
2018-Jun-20 02:56N 47°34' W 052°42'0 0.0
2018-Jun-20 02:26N 47°34' W 052°42'0 0.0
2018-Jun-20 01:56N 47°34' W 052°42'0 0.0
2018-Jun-20 01:26N 47°34' W 052°42'0 0.0
2018-Jun-20 00:56N 47°34' W 052°42'0 0.0
2018-Jun-20 00:26N 47°34' W 052°42'0 0.0
2018-Jun-19 23:56N 47°34' W 052°42'0 0.0
2018-Jun-19 23:26N 47°34' W 052°42'0 0.0
2018-Jun-19 22:56N 47°34' W 052°42'0 0.0
2018-Jun-19 22:23N 47°34' W 052°42'0 0.0
2018-Jun-19 21:50N 47°34' W 052°42'0 0.0
2018-Jun-19 21:20N 47°34' W 052°42'0 0.0
2018-Jun-19 20:56N 47°34' W 052°42'0 0.0
2018-Jun-19 20:26N 47°34' W 052°42'0 0.0
2018-Jun-19 19:56N 47°34' W 052°42'0 0.0
2018-Jun-19 19:26N 47°34' W 052°42'0 0.0
2018-Jun-19 18:53N 47°34' W 052°42'0 0.0
2018-Jun-19 18:26N 47°34' W 052°42'0 0.0
2018-Jun-19 17:56N 47°34' W 052°42'0 0.0
2018-Jun-19 17:29N 47°34' W 052°42'0 0.0
2018-Jun-19 16:44N 47°34' W 052°42'0 0.0
2018-Jun-19 16:23N 47°34' W 052°42'0 0.0
2018-Jun-19 15:44N 47°34' W 052°42'0 0.0
2018-Jun-19 15:26N 47°34' W 052°42'0 0.0
2018-Jun-19 15:00N 47°34' W 052°42'3 5.4
2018-Jun-19 14:28N 47°34' W 052°38'510.3
2018-Jun-19 13:58N 47°32' W 052°31'5 9.8
2018-Jun-19 13:27N 47°30' W 052°24'4 8.0
2018-Jun-19 12:56N 47°29' W 052°18'  
2018-Jun-12 22:41N 47°26' W 052°02'514.1
2018-Jun-12 22:22N 47°27' W 052°09'513.9
2018-Jun-12 21:59N 47°29' W 052°16'714.0
2018-Jun-12 21:28N 47°31' W 052°26'713.9
2018-Jun-12 20:58N 47°33' W 052°36'4 8.1
2018-Jun-12 20:27N 47°34' W 052°42'0 0.0
2018-Jun-12 19:55N 47°34' W 052°42'0 0.0
2018-Jun-12 19:25N 47°34' W 052°42'0 0.0
2018-Jun-12 18:55N 47°34' W 052°42'0 0.0
2018-Jun-12 18:28N 47°34' W 052°42'0 0.0
2018-Jun-12 17:52N 47°34' W 052°42'0 0.0
2018-Jun-12 17:28N 47°34' W 052°42'0 0.0
2018-Jun-12 16:49N 47°34' W 052°42'0 0.0
2018-Jun-12 16:25N 47°34' W 052°42'0 0.0
2018-Jun-12 15:46N 47°34' W 052°42'0 0.0
2018-Jun-12 15:22N 47°34' W 052°42'0 0.0
2018-Jun-12 14:58N 47°34' W 052°42'0 0.0
2018-Jun-12 14:16N 47°34' W 052°42'0 0.0
2018-Jun-12 13:58N 47°34' W 052°42'0 0.0
2018-Jun-12 13:22N 47°34' W 052°42'0 0.0
2018-Jun-12 12:48N 47°34' W 052°42'0 0.0
2018-Jun-12 12:30N 47°34' W 052°42'0 0.0
2018-Jun-12 12:00N 47°34' W 052°42'0 0.0
2018-Jun-12 11:30N 47°34' W 052°42'0 0.0
2018-Jun-12 10:57N 47°34' W 052°42'0 0.0
2018-Jun-12 10:30N 47°34' W 052°42'0 0.0
2018-Jun-12 10:00N 47°34' W 052°42'0 0.0
2018-Jun-12 09:24N 47°34' W 052°42'0 0.0
2018-Jun-12 09:00N 47°34' W 052°42'0 0.0
2018-Jun-12 08:30N 47°34' W 052°42'0 0.0
2018-Jun-12 07:54N 47°34' W 052°42'0 0.0
2018-Jun-12 07:27N 47°34' W 052°42'0 0.0
2018-Jun-12 06:57N 47°34' W 052°42'0 0.0
2018-Jun-12 06:30N 47°34' W 052°42'0 0.0
2018-Jun-12 05:39N 47°34' W 052°42'0 0.0
2018-Jun-12 05:24N 47°34' W 052°42'0 0.0
2018-Jun-12 04:48N 47°34' W 052°42'0 0.0
2018-Jun-12 04:24N 47°34' W 052°42'0 0.0
2018-Jun-12 04:00N 47°34' W 052°42'0 0.0
2018-Jun-12 03:30N 47°34' W 052°42'0 0.0
2018-Jun-12 03:00N 47°34' W 052°42'0 0.0
2018-Jun-12 02:24N 47°34' W 052°42'0 0.0
2018-Jun-12 02:00N 47°34' W 052°42'0 0.0
2018-Jun-12 01:24N 47°34' W 052°42'0 0.0
2018-Jun-12 00:57N 47°34' W 052°42'0 0.0
2018-Jun-12 00:27N 47°34' W 052°42'0 0.0
2018-Jun-12 00:00N 47°34' W 052°42'0 0.0
2018-Jun-11 23:27N 47°34' W 052°42'0 0.0
2018-Jun-11 23:00N 47°34' W 052°42'0 0.0
2018-Jun-11 22:24N 47°34' W 052°42'0 0.0
2018-Jun-11 22:00N 47°34' W 052°42'0 0.0
2018-Jun-11 21:27N 47°34' W 052°42'0 0.0
2018-Jun-11 21:00N 47°34' W 052°42'0 0.0
2018-Jun-11 20:27N 47°34' W 052°42'0 0.0
2018-Jun-11 20:00N 47°34' W 052°42'0 0.0
2018-Jun-11 19:27N 47°34' W 052°42'0 0.0
2018-Jun-11 18:54N 47°34' W 052°42'0 0.2
2018-Jun-11 18:30N 47°34' W 052°42'0 0.0
2018-Jun-11 17:57N 47°34' W 052°42'0 0.0
2018-Jun-11 16:39N 47°34' W 052°42'0 0.0
2018-Jun-11 16:30N 47°34' W 052°42'0 0.0
2018-Jun-11 15:57N 47°34' W 052°42'0 0.0
2018-Jun-11 15:27N 47°34' W 052°42'0 0.0
2018-Jun-11 14:57N 47°34' W 052°42'0 0.0
2018-Jun-11 14:15N 47°34' W 052°42'0 0.0
2018-Jun-11 13:51N 47°34' W 052°42'0 0.0
2018-Jun-11 13:30N 47°34' W 052°42'0 0.0
2018-Jun-11 12:57N 47°34' W 052°42'0 0.0
2018-Jun-11 12:27N 47°34' W 052°42'0 0.0
2018-Jun-11 11:48N 47°34' W 052°42'0 0.0
2018-Jun-11 11:24N 47°34' W 052°42'0 0.0
2018-Jun-11 10:51N 47°34' W 052°42'0 0.0
2018-Jun-11 10:27N 47°34' W 052°42'0 0.0
2018-Jun-11 10:00N 47°34' W 052°42'0 0.0
2018-Jun-11 09:20N 47°34' W 052°42'0 0.0
2018-Jun-11 08:56N 47°34' W 052°42'0 0.0
2018-Jun-11 08:20N 47°34' W 052°42'0 0.0
2018-Jun-11 07:56N 47°34' W 052°42'0 0.0
2018-Jun-11 07:26N 47°34' W 052°42'0 0.0
2018-Jun-11 06:56N 47°34' W 052°42'0 0.0
2018-Jun-11 06:26N 47°34' W 052°42'0 0.0
2018-Jun-11 05:50N 47°34' W 052°42'0 0.0
2018-Jun-11 05:26N 47°34' W 052°42'0 0.0
2018-Jun-11 04:38N 47°34' W 052°42'0 0.0
2018-Jun-11 04:23N 47°34' W 052°42'0 0.0
2018-Jun-11 03:53N 47°34' W 052°42'0 0.0
2018-Jun-11 03:26N 47°34' W 052°42'0 0.0
2018-Jun-11 02:59N 47°34' W 052°42'0 0.0
2018-Jun-11 02:29N 47°34' W 052°42'0 0.0
2018-Jun-11 01:56N 47°34' W 052°42'0 0.0
2018-Jun-11 01:23N 47°34' W 052°42'0 0.0
2018-Jun-11 00:59N 47°34' W 052°42'0 0.0
2018-Jun-11 00:23N 47°34' W 052°42'0 0.0
2018-Jun-10 23:56N 47°34' W 052°42'0 0.0
2018-Jun-10 23:25N 47°34' W 052°42'0 0.0
2018-Jun-10 22:59N 47°34' W 052°42'0 0.0
2018-Jun-10 22:26N 47°34' W 052°42'0 0.0
2018-Jun-10 21:56N 47°34' W 052°42'0 0.0
2018-Jun-10 21:30N 47°34' W 052°42'0 0.0
2018-Jun-10 20:58N 47°34' W 052°42'0 0.0
2018-Jun-10 20:29N 47°34' W 052°42'  
Track history (hours):
 
Tides and Currents Weather Stations Pressure Air Temp Water Temp Dewpoint Dewpoint Depression Visibility Wind Speed Wind Dir Waves Ship Positions

Atlantic Heron

Last reported at 2018-Jun-20 20:19 UTC. Time now 2018-Jun-23 21:54 UTC.
Position N 47°26' W 052°05'.

Length 86 m; draft 6.1 m.

Type: Other ship. MMSI: 316001340.

Date/timePositionNaut miles runAvg speedWind from/ knotsBaromVisibWave heightAir tempDewpointWater temp
2018-Jun-20 20:19N 47°26' W 052°05'513.4
2018-Jun-20 19:56N 47°27' W 052°12'613.4
2018-Jun-20 19:30N 47°29' W 052°20'713.2
2018-Jun-20 19:00N 47°32' W 052°29'612.6
2018-Jun-20 18:29N 47°34' W 052°38'2 4.3
2018-Jun-20 17:57N 47°34' W 052°42'0 0.0
2018-Jun-20 17:27N 47°34' W 052°42'0 0.0
2018-Jun-20 16:56N 47°34' W 052°42'0 0.0
2018-Jun-20 16:26N 47°34' W 052°42'0 0.0
2018-Jun-20 15:53N 47°34' W 052°42'0 0.0
2018-Jun-20 15:26N 47°34' W 052°42'0 0.0
2018-Jun-20 14:59N 47°34' W 052°42'0 0.0
2018-Jun-20 14:29N 47°34' W 052°42'0 0.0
2018-Jun-20 13:56N 47°34' W 052°42'0 0.0
2018-Jun-20 13:26N 47°34' W 052°42'0 0.0
2018-Jun-20 12:56N 47°34' W 052°42'0 0.0
2018-Jun-20 12:23N 47°34' W 052°42'0 0.0
2018-Jun-20 11:59N 47°34' W 052°42'0 0.0
2018-Jun-20 11:29N 47°34' W 052°42'0 0.6
2018-Jun-20 10:56N 47°34' W 052°42'0 0.0
2018-Jun-20 10:29N 47°34' W 052°42'0 0.0
2018-Jun-20 09:56N 47°34' W 052°42'0 0.0
2018-Jun-20 09:26N 47°34' W 052°42'0 0.0
2018-Jun-20 08:56N 47°34' W 052°42'0 0.0
2018-Jun-20 08:26N 47°34' W 052°42'0 0.0
2018-Jun-20 07:56N 47°34' W 052°42'0 0.0
2018-Jun-20 07:26N 47°34' W 052°42'0 0.0
2018-Jun-20 06:56N 47°34' W 052°42'0 0.0
2018-Jun-20 06:26N 47°34' W 052°42'0 0.0
2018-Jun-20 05:50N 47°34' W 052°42'0 0.0
2018-Jun-20 05:26N 47°34' W 052°42'0 0.0
2018-Jun-20 04:50N 47°34' W 052°42'0 0.0
2018-Jun-20 04:20N 47°34' W 052°42'0 0.0
2018-Jun-20 03:56N 47°34' W 052°42'0 0.0
2018-Jun-20 03:26N 47°34' W 052°42'0 0.0
2018-Jun-20 02:56N 47°34' W 052°42'0 0.0
2018-Jun-20 02:26N 47°34' W 052°42'0 0.0
2018-Jun-20 01:56N 47°34' W 052°42'0 0.0
2018-Jun-20 01:26N 47°34' W 052°42'0 0.0
2018-Jun-20 00:56N 47°34' W 052°42'0 0.0
2018-Jun-20 00:26N 47°34' W 052°42'0 0.0
2018-Jun-19 23:56N 47°34' W 052°42'0 0.0
2018-Jun-19 23:26N 47°34' W 052°42'0 0.0
2018-Jun-19 22:56N 47°34' W 052°42'0 0.0
2018-Jun-19 22:23N 47°34' W 052°42'0 0.0
2018-Jun-19 21:50N 47°34' W 052°42'0 0.0
2018-Jun-19 21:20N 47°34' W 052°42'0 0.0
2018-Jun-19 20:56N 47°34' W 052°42'0 0.0
2018-Jun-19 20:26N 47°34' W 052°42'0 0.0
2018-Jun-19 19:56N 47°34' W 052°42'0 0.0
2018-Jun-19 19:26N 47°34' W 052°42'0 0.0
2018-Jun-19 18:53N 47°34' W 052°42'0 0.0
2018-Jun-19 18:26N 47°34' W 052°42'0 0.0
2018-Jun-19 17:56N 47°34' W 052°42'0 0.0
2018-Jun-19 17:29N 47°34' W 052°42'0 0.0
2018-Jun-19 16:44N 47°34' W 052°42'0 0.0
2018-Jun-19 16:23N 47°34' W 052°42'0 0.0
2018-Jun-19 15:44N 47°34' W 052°42'0 0.0
2018-Jun-19 15:26N 47°34' W 052°42'0 0.0
2018-Jun-19 15:00N 47°34' W 052°42'3 5.4
2018-Jun-19 14:28N 47°34' W 052°38'510.3
2018-Jun-19 13:58N 47°32' W 052°31'5 9.8
2018-Jun-19 13:27N 47°30' W 052°24'4 8.0
2018-Jun-19 12:56N 47°29' W 052°18'  
2018-Jun-12 22:41N 47°26' W 052°02'514.1
2018-Jun-12 22:22N 47°27' W 052°09'513.9
2018-Jun-12 21:59N 47°29' W 052°16'714.0
2018-Jun-12 21:28N 47°31' W 052°26'713.9
2018-Jun-12 20:58N 47°33' W 052°36'4 8.1
2018-Jun-12 20:27N 47°34' W 052°42'0 0.0
2018-Jun-12 19:55N 47°34' W 052°42'0 0.0
2018-Jun-12 19:25N 47°34' W 052°42'0 0.0
2018-Jun-12 18:55N 47°34' W 052°42'0 0.0
2018-Jun-12 18:28N 47°34' W 052°42'0 0.0
2018-Jun-12 17:52N 47°34' W 052°42'0 0.0
2018-Jun-12 17:28N 47°34' W 052°42'0 0.0
2018-Jun-12 16:49N 47°34' W 052°42'0 0.0
2018-Jun-12 16:25N 47°34' W 052°42'0 0.0
2018-Jun-12 15:46N 47°34' W 052°42'0 0.0
2018-Jun-12 15:22N 47°34' W 052°42'0 0.0
2018-Jun-12 14:58N 47°34' W 052°42'0 0.0
2018-Jun-12 14:16N 47°34' W 052°42'0 0.0
2018-Jun-12 13:58N 47°34' W 052°42'0 0.0
2018-Jun-12 13:22N 47°34' W 052°42'0 0.0
2018-Jun-12 12:48N 47°34' W 052°42'0 0.0
2018-Jun-12 12:30N 47°34' W 052°42'0 0.0
2018-Jun-12 12:00N 47°34' W 052°42'0 0.0
2018-Jun-12 11:30N 47°34' W 052°42'0 0.0
2018-Jun-12 10:57N 47°34' W 052°42'0 0.0
2018-Jun-12 10:30N 47°34' W 052°42'0 0.0
2018-Jun-12 10:00N 47°34' W 052°42'0 0.0
2018-Jun-12 09:24N 47°34' W 052°42'0 0.0
2018-Jun-12 09:00N 47°34' W 052°42'0 0.0
2018-Jun-12 08:30N 47°34' W 052°42'0 0.0
2018-Jun-12 07:54N 47°34' W 052°42'0 0.0
2018-Jun-12 07:27N 47°34' W 052°42'0 0.0
2018-Jun-12 06:57N 47°34' W 052°42'0 0.0
2018-Jun-12 06:30N 47°34' W 052°42'0 0.0
2018-Jun-12 05:39N 47°34' W 052°42'0 0.0
2018-Jun-12 05:24N 47°34' W 052°42'0 0.0
2018-Jun-12 04:48N 47°34' W 052°42'0 0.0
2018-Jun-12 04:24N 47°34' W 052°42'0 0.0
2018-Jun-12 04:00N 47°34' W 052°42'0 0.0
2018-Jun-12 03:30N 47°34' W 052°42'0 0.0
2018-Jun-12 03:00N 47°34' W 052°42'0 0.0
2018-Jun-12 02:24N 47°34' W 052°42'0 0.0
2018-Jun-12 02:00N 47°34' W 052°42'0 0.0
2018-Jun-12 01:24N 47°34' W 052°42'0 0.0
2018-Jun-12 00:57N 47°34' W 052°42'0 0.0
2018-Jun-12 00:27N 47°34' W 052°42'0 0.0
2018-Jun-12 00:00N 47°34' W 052°42'0 0.0
2018-Jun-11 23:27N 47°34' W 052°42'0 0.0
2018-Jun-11 23:00N 47°34' W 052°42'0 0.0
2018-Jun-11 22:24N 47°34' W 052°42'0 0.0
2018-Jun-11 22:00N 47°34' W 052°42'0 0.0
2018-Jun-11 21:27N 47°34' W 052°42'0 0.0
2018-Jun-11 21:00N 47°34' W 052°42'0 0.0
2018-Jun-11 20:27N 47°34' W 052°42'0 0.0
2018-Jun-11 20:00N 47°34' W 052°42'0 0.0
2018-Jun-11 19:27N 47°34' W 052°42'0 0.0
2018-Jun-11 18:54N 47°34' W 052°42'0 0.2
2018-Jun-11 18:30N 47°34' W 052°42'0 0.0
2018-Jun-11 17:57N 47°34' W 052°42'0 0.0
2018-Jun-11 16:39N 47°34' W 052°42'0 0.0
2018-Jun-11 16:30N 47°34' W 052°42'0 0.0
2018-Jun-11 15:57N 47°34' W 052°42'0 0.0
2018-Jun-11 15:27N 47°34' W 052°42'0 0.0
2018-Jun-11 14:57N 47°34' W 052°42'0 0.0
2018-Jun-11 14:15N 47°34' W 052°42'0 0.0
2018-Jun-11 13:51N 47°34' W 052°42'0 0.0
2018-Jun-11 13:30N 47°34' W 052°42'0 0.0
2018-Jun-11 12:57N 47°34' W 052°42'0 0.0
2018-Jun-11 12:27N 47°34' W 052°42'0 0.0
2018-Jun-11 11:48N 47°34' W 052°42'0 0.0
2018-Jun-11 11:24N 47°34' W 052°42'0 0.0
2018-Jun-11 10:51N 47°34' W 052°42'0 0.0
2018-Jun-11 10:27N 47°34' W 052°42'0 0.0
2018-Jun-11 10:00N 47°34' W 052°42'0 0.0
2018-Jun-11 09:20N 47°34' W 052°42'0 0.0
2018-Jun-11 08:56N 47°34' W 052°42'0 0.0
2018-Jun-11 08:20N 47°34' W 052°42'0 0.0
2018-Jun-11 07:56N 47°34' W 052°42'0 0.0
2018-Jun-11 07:26N 47°34' W 052°42'0 0.0
2018-Jun-11 06:56N 47°34' W 052°42'0 0.0
2018-Jun-11 06:26N 47°34' W 052°42'0 0.0
2018-Jun-11 05:50N 47°34' W 052°42'0 0.0
2018-Jun-11 05:26N 47°34' W 052°42'0 0.0
2018-Jun-11 04:38N 47°34' W 052°42'0 0.0
2018-Jun-11 04:23N 47°34' W 052°42'0 0.0
2018-Jun-11 03:53N 47°34' W 052°42'0 0.0
2018-Jun-11 03:26N 47°34' W 052°42'0 0.0
2018-Jun-11 02:59N 47°34' W 052°42'0 0.0
2018-Jun-11 02:29N 47°34' W 052°42'0 0.0
2018-Jun-11 01:56N 47°34' W 052°42'0 0.0
2018-Jun-11 01:23N 47°34' W 052°42'0 0.0
2018-Jun-11 00:59N 47°34' W 052°42'0 0.0
2018-Jun-11 00:23N 47°34' W 052°42'0 0.0
2018-Jun-10 23:56N 47°34' W 052°42'0 0.0
2018-Jun-10 23:25N 47°34' W 052°42'0 0.0
2018-Jun-10 22:59N 47°34' W 052°42'0 0.0
2018-Jun-10 22:26N 47°34' W 052°42'0 0.0
2018-Jun-10 21:56N 47°34' W 052°42'0 0.0
2018-Jun-10 21:30N 47°34' W 052°42'0 0.0
2018-Jun-10 20:58N 47°34' W 052°42'0 0.0
2018-Jun-10 20:29N 47°34' W 052°42'  

Dump ship's entire track history